weather.gov     
National Weather Service

Terminal Aerodrome Forecast
NWS Homepage
This page is being discontinued on March 12, 2014.
The same data is available at this site. Please update your bookmarks.
Thank you, and we apologize for the inconvenience.
Please send an email to SR-SRH.Webmaster@noaa.gov with any concerns.


Current Version
Previous Version:    01  02  03  04  05  06  07  08  09  10  11  12  13  14  15  16  17  18  19  20  21  22  23  24  25  26  27  28  29  30  
   31  32  33  34  35  36  37  38  39  40  41  42  43  44  45  46  47  48  49  50  51  52  53  
[Printable]
615
FTUS41 KRLX 210500 RRA
TAFEKN
TAF
KEKN 210547Z 2106/2206 00000KT 6SM BR BKN025
      TEMPO 2106/2109 3SM BR SCT035
     FM210900 00000KT 1/2SM FG VV001
      TEMPO 2109/2113 3SM BR SCT001 BKN025
     FM211300 00000KT 2SM BR BKN025
     FM211500 VRB03KT P6SM BKN040
     FM211700 26004KT P6SM VCTS BKN025CB
     FM212100 26006KT 6SM TSRA BR BKN025CB
     FM220200 00000KT P6SM VCTS BKN025CB
     FM220500 00000KT 6SM BR BKN025=


U.S. Dept. of Commerce
NOAA National Weather Service
1325 East West Highway
Silver Spring, MD 20910
E-mail: w-nws.webmaster@noaa.gov
Page last modified: May 16, 2007
NATIONAL WEATHER SERVICE: for Safety, for Work, for Fun - FOR LIFE